createdAt,value
2017-09-14T00:00:02.087Z,96.41
2017-09-14T00:05:02.596Z,96.09
2017-09-14T00:10:02.789Z,95.8
2017-09-14T00:15:03.024Z,96.26
2017-09-14T00:20:02.974Z,96.66
2017-09-14T00:25:02.197Z,97.91
2017-09-14T00:30:02.440Z,98.31
2017-09-14T00:35:02.328Z,98.66
2017-09-14T00:40:02.536Z,100.11
2017-09-14T00:45:02.814Z,101.57
2017-09-14T00:50:02.193Z,101.75
2017-09-14T00:55:02.412Z,102.52
2017-09-14T01:00:02.605Z,102.22
2017-09-14T01:05:02.892Z,102.59
2017-09-14T01:10:02.055Z,102.78
2017-09-14T01:15:02.305Z,103.06
2017-09-14T01:20:02.685Z,102.12
2017-09-14T01:25:02.868Z,102.88
2017-09-14T01:30:02.220Z,103.52
2017-09-14T01:35:02.114Z,103.31
2017-09-14T01:40:02.397Z,103.33
2017-09-14T01:45:02.617Z,103.34
2017-09-14T01:50:02.815Z,103.2
2017-09-14T01:55:03.024Z,103.16
2017-09-14T02:00:02.279Z,103.65
2017-09-14T02:05:02.217Z,102.79
2017-09-14T02:10:02.448Z,103.07
2017-09-14T02:15:02.662Z,103.31
2017-09-14T02:20:02.240Z,103.98
2017-09-14T02:25:02.578Z,103.3
2017-09-14T02:30:02.766Z,103.78
2017-09-14T02:35:02.567Z,104
2017-09-14T02:40:02.804Z,103.44
2017-09-14T02:45:03.019Z,103.94
2017-09-14T02:50:02.021Z,102.51
2017-09-14T02:55:02.224Z,102.81
2017-09-14T03:00:02.423Z,102.73
2017-09-14T03:05:02.854Z,102.02
2017-09-14T03:10:02.127Z,102.53
2017-09-14T03:15:02.355Z,102.94
2017-09-14T03:20:02.630Z,104.1
2017-09-14T03:25:02.846Z,102.55
2017-09-14T03:30:02.045Z,102.73
2017-09-14T03:35:02.537Z,102.03
2017-09-14T03:40:02.747Z,102.67
2017-09-14T03:45:02.958Z,103.49
2017-09-14T03:50:02.949Z,102.71
2017-09-14T03:55:02.161Z,102.99
2017-09-14T04:00:02.355Z,103.82
2017-09-14T04:05:02.664Z,103.17
2017-09-14T04:10:02.849Z,104.05
2017-09-14T04:15:02.044Z,104.36
2017-09-14T04:20:02.897Z,104.77
2017-09-14T04:25:02.140Z,104.99
2017-09-14T04:30:02.306Z,104.2
2017-09-14T04:35:02.270Z,105.46
2017-09-14T04:40:02.500Z,105.63
2017-09-14T04:45:02.671Z,104.45
2017-09-14T04:50:02.954Z,105.13
2017-09-14T04:55:02.242Z,105.66
2017-09-14T05:00:02.501Z,105.55
2017-09-14T05:05:02.967Z,106.27
2017-09-14T05:10:02.137Z,105.82
2017-09-14T05:15:02.433Z,106.07
2017-09-14T05:20:02.107Z,106.61
2017-09-14T05:25:02.320Z,106.03
2017-09-14T05:30:02.498Z,105.9
2017-09-14T05:35:02.892Z,106.05
2017-09-14T05:40:02.070Z,105.22
2017-09-14T05:45:02.250Z,105.6
2017-09-14T05:50:02.781Z,105.57
2017-09-14T05:55:03.034Z,105.79
2017-09-14T06:00:02.239Z,105.89
2017-09-14T06:05:02.360Z,105.92
2017-09-14T06:10:02.523Z,106.19
2017-09-14T06:15:02.703Z,105.35
2017-09-14T06:20:02.952Z,105.85
2017-09-14T06:25:02.141Z,106.66
2017-09-14T06:30:02.342Z,105.97
2017-09-14T06:35:02.038Z,106.8
2017-09-14T06:40:02.272Z,105.13
2017-09-14T06:45:02.443Z,105.45
2017-09-14T06:50:02.046Z,104.77
2017-09-14T06:55:02.234Z,104.11
2017-09-14T07:00:02.437Z,103.33
2017-09-14T07:05:02.784Z,103.7
2017-09-14T07:10:02.978Z,103.46
2017-09-14T07:15:02.193Z,102.09
2017-09-14T07:20:02.475Z,101.99
2017-09-14T07:25:02.740Z,101.48
2017-09-14T07:30:02.917Z,100.17
2017-09-14T07:35:02.603Z,99.95
2017-09-14T07:40:02.777Z,99.34
2017-09-14T07:45:03.017Z,99.62
2017-09-14T07:50:02.224Z,98.88
2017-09-14T07:55:02.416Z,99.3
2017-09-14T08:00:02.589Z,100.01
2017-09-14T08:05:02.665Z,98.92
2017-09-14T08:10:02.855Z,97.28
2017-09-14T08:15:02.031Z,98.5
2017-09-14T08:20:02.376Z,98.25
2017-09-14T08:25:02.560Z,98.58
2017-09-14T08:30:02.718Z,96.85
2017-09-14T08:35:02.895Z,95.94
2017-09-14T08:40:02.066Z,95.8
2017-09-14T08:45:02.345Z,94.6
2017-09-14T08:50:02.774Z,93.04
2017-09-14T08:55:02.994Z,93.51
2017-09-14T09:00:02.193Z,91.36
2017-09-14T09:05:02.985Z,93.62
2017-09-14T09:10:02.193Z,92.8
2017-09-14T09:15:02.423Z,92.99
2017-09-14T09:20:02.746Z,89.65
2017-09-14T09:25:02.940Z,91.69
2017-09-14T09:30:02.125Z,87.85
2017-09-14T09:35:02.447Z,90.61
2017-09-14T09:40:02.661Z,91.11
2017-09-14T09:45:02.872Z,88.82
2017-09-14T09:50:02.687Z,87.54
2017-09-14T09:55:02.928Z,90.58
2017-09-14T10:00:02.128Z,92.45
2017-09-14T10:05:02.913Z,90.84
2017-09-14T10:10:02.186Z,89.58
2017-09-14T10:15:02.396Z,89.57
2017-09-14T10:20:02.739Z,89.94
2017-09-14T10:25:02.943Z,89.58
2017-09-14T10:30:02.157Z,95.55
2017-09-14T10:35:02.457Z,98.83
2017-09-14T10:40:02.639Z,101.7
2017-09-14T10:45:02.869Z,104.24
2017-09-14T10:50:02.579Z,106.95
2017-09-14T10:55:02.772Z,107.53
2017-09-14T11:00:03.023Z,107.93
2017-09-14T11:05:02.721Z,107.57
2017-09-14T11:10:02.955Z,106.67
2017-09-14T11:15:02.167Z,109.38
2017-09-14T11:20:02.557Z,107.01
2017-09-14T11:25:02.771Z,107.55
2017-09-14T11:30:02.973Z,107.43
2017-09-14T11:35:02.957Z,108.8
2017-09-14T11:40:02.149Z,107.93
2017-09-14T11:45:02.371Z,107.64
2017-09-14T11:50:02.570Z,109.46
2017-09-14T11:55:02.738Z,108.02
2017-09-14T12:00:02.940Z,109.38
2017-09-14T12:05:02.707Z,107.92
2017-09-14T12:10:02.899Z,104.62
2017-09-14T12:15:02.067Z,104.03
2017-09-14T12:20:02.397Z,103.21
2017-09-14T12:25:02.629Z,101.4
2017-09-14T12:30:02.838Z,101.33
2017-09-14T12:35:02.024Z,98.2
2017-09-14T12:40:02.278Z,99.54
2017-09-14T12:45:02.491Z,93.9
2017-09-14T12:50:02.133Z,94.9
2017-09-14T12:55:02.345Z,94.11
2017-09-14T13:00:02.547Z,90.94
2017-09-14T13:05:02.887Z,92.17
2017-09-14T13:10:02.079Z,94.3
2017-09-14T13:15:02.315Z,89.86
2017-09-14T13:20:02.716Z,89.21
2017-09-14T13:25:02.920Z,85.01
2017-09-14T13:30:02.108Z,89.59
2017-09-14T13:35:02.435Z,82.86
2017-09-14T13:40:02.620Z,85.86
2017-09-14T13:45:02.789Z,81.94
2017-09-14T13:50:02.312Z,82.25
2017-09-14T13:55:02.500Z,80.65
2017-09-14T14:00:02.691Z,83.08
2017-09-14T14:05:02.897Z,79.69
2017-09-14T14:10:02.183Z,80.71
2017-09-14T14:15:02.406Z,82.2
2017-09-14T14:20:02.986Z,84.31
2017-09-14T14:25:02.212Z,84.13
2017-09-14T14:30:02.405Z,83.92
2017-09-14T14:35:02.755Z,82.99
2017-09-14T14:40:02.984Z,83.44
2017-09-14T14:45:02.145Z,80.75
2017-09-14T14:50:02.568Z,82.98
2017-09-14T14:55:02.772Z,84.28
2017-09-14T15:00:03.021Z,89.03
2017-09-14T15:05:02.589Z,89.77
2017-09-14T15:10:02.804Z,90.71
2017-09-14T15:15:03.037Z,88.45
2017-09-14T15:20:02.207Z,88.65
2017-09-14T15:25:02.404Z,87.66
2017-09-14T15:30:02.613Z,88.33
2017-09-14T15:35:02.924Z,86.8
2017-09-14T15:40:02.113Z,87.25
2017-09-14T15:45:02.313Z,87.14
2017-09-14T15:50:03.038Z,86.83
2017-09-14T15:55:02.241Z,87.61
2017-09-14T16:00:02.487Z,85.4
2017-09-14T16:05:02.642Z,86.72
2017-09-14T16:10:02.859Z,91.74
2017-09-14T16:15:02.065Z,92.62
2017-09-14T16:20:02.457Z,100.41
2017-09-14T16:25:02.702Z,101.55
2017-09-14T16:30:02.925Z,104.84
2017-09-14T16:35:02.960Z,103.26
2017-09-14T16:40:02.175Z,106.45
2017-09-14T16:45:02.394Z,106.47
2017-09-14T16:50:02.409Z,106.32
2017-09-14T16:55:02.594Z,106.02
2017-09-14T17:00:02.815Z,106.79
2017-09-14T17:05:03.000Z,107.15
2017-09-14T17:10:02.237Z,106.88
2017-09-14T17:15:02.473Z,105.05
2017-09-14T17:20:02.705Z,104.66
2017-09-14T17:25:02.896Z,104.58
2017-09-14T17:30:02.088Z,105.23
2017-09-14T17:35:02.651Z,104.49
2017-09-14T17:40:02.814Z,105.58
2017-09-14T17:45:03.005Z,105.87
2017-09-14T17:50:02.321Z,105.52
2017-09-14T17:55:02.495Z,107.03
2017-09-14T18:00:02.647Z,106.67
2017-09-14T18:05:02.450Z,107.74
2017-09-14T18:10:02.705Z,107.68
2017-09-14T18:15:02.883Z,108.7
2017-09-14T18:20:02.626Z,108.76
2017-09-14T18:25:02.818Z,108.77
2017-09-14T18:30:02.057Z,108.93
2017-09-14T18:35:02.235Z,110.17
2017-09-14T18:40:02.441Z,110.54
2017-09-14T18:45:02.654Z,111.05
2017-09-14T18:50:02.598Z,110.8
2017-09-14T18:55:02.840Z,111.31
2017-09-14T19:00:02.006Z,111.84
2017-09-14T19:05:02.760Z,111.71
2017-09-14T19:10:02.997Z,113.1
2017-09-14T19:15:02.239Z,112.87
2017-09-14T19:20:02.977Z,112.38
2017-09-14T19:25:02.201Z,112.16
2017-09-14T19:30:02.454Z,112.97
2017-09-14T19:35:02.950Z,113.56
2017-09-14T19:40:02.170Z,113.24
2017-09-14T19:45:02.399Z,112.95
2017-09-14T19:50:02.765Z,114.2
2017-09-14T19:55:03.002Z,113.79
2017-09-14T20:00:02.241Z,112.7
2017-09-14T20:05:02.678Z,113.92
2017-09-14T20:10:02.874Z,113.81
2017-09-14T20:15:02.083Z,113.63
2017-09-14T20:20:02.781Z,113.35
2017-09-14T20:25:03.003Z,113.65
2017-09-14T20:30:02.177Z,114.83
2017-09-14T20:35:02.279Z,114.55
2017-09-14T20:40:02.499Z,114.87
2017-09-14T20:45:02.704Z,114.37
2017-09-14T20:50:02.387Z,114.43
2017-09-14T20:55:02.653Z,114.64
2017-09-14T21:00:02.878Z,114.59
2017-09-14T21:05:02.989Z,114.36
2017-09-14T21:10:02.256Z,114.41
2017-09-14T21:15:02.453Z,114.3
2017-09-14T21:20:02.751Z,114.13
2017-09-14T21:25:03.010Z,114.16
2017-09-14T21:30:02.174Z,113.62
2017-09-14T21:35:02.361Z,113.53
2017-09-14T21:40:02.575Z,113.04
2017-09-14T21:45:02.775Z,112.72
2017-09-14T21:50:02.269Z,112.34
2017-09-14T21:55:02.436Z,111.91
2017-09-14T22:00:02.933Z,111.5
2017-09-14T22:05:02.397Z,111.79
2017-09-14T22:10:02.724Z,111.34
2017-09-14T22:15:02.127Z,111.28
2017-09-14T22:20:02.141Z,111.44
2017-09-14T22:25:02.489Z,111.51
2017-09-14T22:30:02.839Z,111.4
2017-09-14T22:35:02.337Z,110.84
2017-09-14T22:40:02.659Z,110.99
2017-09-14T22:45:03.003Z,111.05
2017-09-14T22:50:02.646Z,110.79
2017-09-14T22:55:03.032Z,110.73
2017-09-14T23:00:02.495Z,110.82
2017-09-14T23:05:02.013Z,110.76
2017-09-14T23:10:02.255Z,111.13
2017-09-14T23:15:02.457Z,110.48
2017-09-14T23:20:02.719Z,110.48
2017-09-14T23:25:02.981Z,110.47
2017-09-14T23:30:02.197Z,110.37
2017-09-14T23:35:02.647Z,110.12
2017-09-14T23:40:02.885Z,110.25
2017-09-14T23:45:02.043Z,110.02
2017-09-14T23:50:02.924Z,109.78
2017-09-14T23:55:02.125Z,109.51
